Time;durP1;ratioP1;P1;durP2;ratioP2;P2;SDS_P1;SDS_P2;PMS_P1;PMS_P2;Temp;Humidity;BMP_temperature;BMP_pressure;BME280_temperature;BME280_humidity;BME280_pressure;Samples;Min_cycle;Max_cycle;Signal;HPM_P1;HPM_P2
2021/05/04 00:00:01;;;;;;;32.60;14.75;;;;;;;2.42;66.06;97374.71;1853570;77;25740;-83
2021/05/04 00:02:29;;;;;;;22.75;13.68;;;;;;;2.42;66.12;97371.21;1841438;77;25763;-83
2021/05/04 00:04:56;;;;;;;29.02;14.40;;;;;;;2.36;66.03;97375.38;1824089;77;25587;-83
2021/05/04 00:07:24;;;;;;;25.88;13.80;;;;;;;2.31;66.15;97380.33;1854715;77;26488;-83
2021/05/04 00:09:51;;;;;;;26.50;12.37;;;;;;;2.26;66.24;97373.34;1857794;77;28466;-83
2021/05/04 00:12:18;;;;;;;23.05;13.15;;;;;;;2.22;66.33;97369.31;1857625;77;26336;-83
2021/05/04 00:14:46;;;;;;;26.12;12.20;;;;;;;2.24;66.45;97371.83;1831174;77;26381;-83
2021/05/04 00:17:13;;;;;;;19.82;11.10;;;;;;;2.29;66.42;97366.86;1850519;77;26401;-83
2021/05/04 00:19:40;;;;;;;15.28;9.88;;;;;;;2.29;66.44;97367.70;1857831;77;25726;-84
2021/05/04 00:22:08;;;;;;;18.80;10.08;;;;;;;2.24;66.33;97362.50;1854046;77;28390;-83
2021/05/04 00:24:35;;;;;;;17.65;10.58;;;;;;;2.18;66.40;97363.96;1844120;77;25819;-83
2021/05/04 00:27:03;;;;;;;20.57;10.28;;;;;;;2.16;66.57;97360.66;1827370;77;25732;-83
2021/05/04 00:29:30;;;;;;;22.67;12.13;;;;;;;2.13;66.61;97358.30;1824139;77;25692;-83
2021/05/04 00:31:57;;;;;;;19.77;11.30;;;;;;;2.09;66.59;97352.95;1835258;77;25723;-83
2021/05/04 00:34:25;;;;;;;21.27;12.25;;;;;;;1.95;66.64;97355.70;1824653;77;28463;-83
2021/05/04 00:36:52;;;;;;;18.27;11.60;;;;;;;1.90;66.88;97354.53;1795461;78;25739;-83
2021/05/04 00:39:19;;;;;;;20.40;11.78;;;;;;;1.93;67.01;97346.23;1791769;78;25741;-82
2021/05/04 00:41:46;;;;;;;18.73;11.88;;;;;;;1.93;67.17;97350.23;1762192;79;26263;-83
2021/05/04 00:44:14;;;;;;;23.92;11.35;;;;;;;1.85;67.23;97349.67;1784251;78;25714;-82
2021/05/04 00:46:41;;;;;;;23.70;11.35;;;;;;;1.80;67.26;97351.98;1805255;78;27557;-83
2021/05/04 00:49:08;;;;;;;21.17;11.85;;;;;;;1.81;67.45;97351.80;1795566;78;26296;-83
2021/05/04 00:51:37;;;;;;;30.68;13.90;;;;;;;1.83;67.42;97351.65;1786377;78;25904;-83
2021/05/04 00:54:05;;;;;;;23.77;12.40;;;;;;;1.85;67.37;97354.16;1763791;79;26552;-81
2021/05/04 00:56:35;;;;;;;18.55;10.98;;;;;;;1.80;67.28;97347.50;1789164;79;25924;-81
2021/05/04 00:59:04;;;;;;;15.38;9.83;;;;;;;1.69;67.38;97353.06;1787560;79;26684;-82
2021/05/04 01:01:33;;;;;;;19.30;10.68;;;;;;;1.59;67.49;97352.34;1730539;81;26222;-81
2021/05/04 01:04:01;;;;;;;21.62;11.83;;;;;;;1.59;67.70;97347.02;1763063;79;25743;-83
2021/05/04 01:06:29;;;;;;;22.58;11.50;;;;;;;1.61;67.78;97357.02;1760227;79;26352;-81
2021/05/04 01:08:56;;;;;;;18.65;11.03;;;;;;;1.65;67.87;97351.73;1743435;79;25402;-81
2021/05/04 01:11:23;;;;;;;21.17;10.48;;;;;;;1.68;67.82;97353.25;1725603;82;27506;-81
2021/05/04 01:13:52;;;;;;;16.87;10.10;;;;;;;1.68;67.77;97351.91;1752233;79;26267;-81
2021/05/04 01:16:20;;;;;;;17.17;10.13;;;;;;;1.67;67.82;97351.08;1692217;83;26367;-82
2021/05/04 01:18:47;;;;;;;16.37;10.78;;;;;;;1.71;67.75;97356.41;1731070;81;25584;-82
2021/05/04 01:21:15;;;;;;;18.05;11.35;;;;;;;1.73;67.81;97352.27;1736680;79;25979;-81
2021/05/04 01:23:42;;;;;;;18.35;10.32;;;;;;;1.72;67.80;97348.77;1762945;79;27633;-81
2021/05/04 01:26:09;;;;;;;16.77;10.32;;;;;;;1.71;67.81;97344.92;1760924;81;25767;-81
2021/05/04 01:28:37;;;;;;;18.90;10.00;;;;;;;1.71;67.75;97343.10;1727955;82;26243;-81
2021/05/04 01:31:04;;;;;;;18.32;9.55;;;;;;;1.68;67.67;97341.27;1714268;82;25785;-81
2021/05/04 01:33:31;;;;;;;17.70;9.13;;;;;;;1.61;67.59;97338.88;1727523;82;25798;-81
2021/05/04 01:36:00;;;;;;;16.95;10.43;;;;;;;1.57;67.66;97335.69;1783736;80;27568;-81
2021/05/04 01:38:28;;;;;;;19.20;10.78;;;;;;;1.53;67.68;97339.68;1783182;78;25721;-82
2021/05/04 01:40:55;;;;;;;15.75;9.90;;;;;;;1.42;67.67;97330.63;1750461;80;26399;-82
2021/05/04 01:43:22;;;;;;;15.48;9.53;;;;;;;1.38;67.81;97333.25;1768920;79;26476;-82
2021/05/04 01:45:50;;;;;;;20.60;10.15;;;;;;;1.35;67.89;97333.55;1756255;81;25812;-82
2021/05/04 01:48:17;;;;;;;22.65;12.82;;;;;;;1.33;67.91;97327.55;1755034;80;28833;-82
2021/05/04 01:50:44;;;;;;;22.98;13.00;;;;;;;1.30;68.03;97331.88;1724549;80;26165;-81
2021/05/04 01:53:12;;;;;;;24.23;15.50;;;;;;;1.30;68.13;97325.23;1786921;80;25838;-81
2021/05/04 01:55:39;;;;;;;58.87;31.80;;;;;;;1.28;68.20;97325.87;1773839;79;25516;-81
2021/05/04 01:58:06;;;;;;;56.75;30.77;;;;;;;1.25;68.20;97324.35;1753819;80;25743;-81
2021/05/04 02:00:34;;;;;;;40.48;24.52;;;;;;;1.20;68.29;97316.02;1798863;79;27487;-81
2021/05/04 02:03:01;;;;;;;49.50;26.40;;;;;;;1.17;68.35;97314.16;1800497;79;25783;-81
2021/05/04 02:05:28;;;;;;;38.30;23.35;;;;;;;1.18;68.46;97315.34;1800591;79;25796;-81
2021/05/04 02:07:56;;;;;;;40.52;24.18;;;;;;;1.16;68.55;97319.14;1800661;79;26259;-81
2021/05/04 02:10:23;;;;;;;36.85;22.02;;;;;;;1.11;68.57;97317.42;1797764;79;25671;-82
2021/05/04 02:12:50;;;;;;;29.72;18.48;;;;;;;1.12;68.71;97319.09;1772565;79;27562;-82
2021/05/04 02:15:17;;;;;;;35.35;20.00;;;;;;;1.05;68.63;97311.75;1800664;79;25690;-82
2021/05/04 02:17:45;;;;;;;29.27;16.27;;;;;;;1.03;68.73;97320.86;1800478;79;25761;-82
2021/05/04 02:20:14;;;;;;;24.43;15.78;;;;;;;0.96;68.75;97318.00;1785214;79;25757;-82
2021/05/04 02:22:41;;;;;;;23.75;13.48;;;;;;;0.97;68.93;97316.98;1761736;80;25743;-82
2021/05/04 02:25:10;;;;;;;21.23;12.30;;;;;;;0.91;68.92;97314.12;1797131;79;27477;-83
2021/05/04 02:27:37;;;;;;;21.60;12.73;;;;;;;0.90;69.07;97322.59;1800726;79;25817;-82
2021/05/04 02:30:06;;;;;;;16.30;10.03;;;;;;;0.88;69.13;97322.39;1800724;79;26300;-82
2021/05/04 02:32:35;;;;;;;17.35;9.18;;;;;;;0.76;69.15;97316.97;1800764;79;26530;-82
2021/05/04 02:35:04;;;;;;;16.25;9.28;;;;;;;0.77;69.33;97320.80;1772655;78;25788;-82
2021/05/04 02:37:32;;;;;;;18.48;9.25;;;;;;;0.75;69.41;97317.45;1780187;79;27543;-82
2021/05/04 02:39:59;;;;;;;15.60;9.75;;;;;;;0.72;69.47;97317.27;1779959;78;25328;-82
2021/05/04 02:42:26;;;;;;;13.22;8.45;;;;;;;0.71;69.56;97316.11;1774439;78;26398;-82
2021/05/04 02:44:54;;;;;;;14.07;8.93;;;;;;;0.68;69.61;97312.42;1775678;79;25787;-82
2021/05/04 02:47:21;;;;;;;13.83;8.25;;;;;;;0.68;69.65;97317.73;1776045;78;25775;-81
2021/05/04 02:49:48;;;;;;;12.70;8.25;;;;;;;0.72;69.77;97315.12;1792415;78;27562;-82
2021/05/04 02:52:15;;;;;;;13.25;8.88;;;;;;;0.69;69.89;97322.06;1795126;78;25793;-82
2021/05/04 02:54:45;;;;;;;13.48;7.47;;;;;;;0.57;70.02;97313.98;1792821;79;26000;-82
2021/05/04 02:57:12;;;;;;;12.15;6.85;;;;;;;0.47;70.05;97315.88;1794723;79;26440;-82
2021/05/04 02:59:39;;;;;;;11.18;6.90;;;;;;;0.40;70.20;97309.48;1795773;79;25873;-82
2021/05/04 03:02:07;;;;;;;13.83;8.40;;;;;;;0.38;70.33;97311.45;1793491;78;29127;-82
2021/05/04 03:04:34;;;;;;;11.57;8.55;;;;;;;0.38;70.39;97314.10;1764066;79;25796;-82
2021/05/04 03:07:01;;;;;;;14.23;8.65;;;;;;;0.40;70.34;97314.79;1764211;79;25317;-82
2021/05/04 03:09:28;;;;;;;16.95;8.85;;;;;;;0.46;70.28;97312.88;1772917;78;25796;-82
2021/05/04 03:11:56;;;;;;;16.95;9.18;;;;;;;0.47;70.37;97309.23;1795622;79;25907;-82
2021/05/04 03:14:24;;;;;;;14.03;7.85;;;;;;;0.47;70.27;97309.23;1795651;78;27490;-82
2021/05/04 03:16:52;;;;;;;18.80;9.08;;;;;;;0.44;70.42;97306.88;1795129;78;25698;-81
2021/05/04 03:19:20;;;;;;;11.00;7.12;;;;;;;0.38;70.37;97311.45;1792342;78;25802;-82
2021/05/04 03:21:47;;;;;;;18.70;8.70;;;;;;;0.39;70.49;97305.16;1787845;78;25719;-82
2021/05/04 03:24:14;;;;;;;11.78;7.85;;;;;;;0.40;70.42;97297.53;1788586;79;25338;-82
2021/05/04 03:26:42;;;;;;;13.22;7.53;;;;;;;0.44;70.47;97293.11;1786612;78;27590;-82
2021/05/04 03:29:09;;;;;;;11.43;6.58;;;;;;;0.47;70.56;97284.01;1782633;78;25709;-83
2021/05/04 03:31:37;;;;;;;11.12;6.83;;;;;;;0.45;70.58;97286.81;1791264;78;25742;-82
2021/05/04 03:34:05;;;;;;;9.65;6.97;;;;;;;0.38;70.58;97281.74;1777188;78;25805;-82
2021/05/04 03:36:32;;;;;;;14.28;7.22;;;;;;;0.35;70.69;97281.58;1753446;81;25867;-81
2021/05/04 03:39:00;;;;;;;14.00;7.50;;;;;;;0.30;70.74;97281.19;1746869;81;28504;-82
2021/05/04 03:41:27;;;;;;;14.90;6.67;;;;;;;0.26;70.83;97278.97;1762676;81;25702;-82
2021/05/04 03:43:54;;;;;;;16.20;6.90;;;;;;;0.24;70.94;97277.78;1746837;79;25382;-82
2021/05/04 03:46:21;;;;;;;13.85;6.97;;;;;;;0.26;70.90;97278.47;1747199;79;26417;-82
2021/05/04 03:48:49;;;;;;;13.10;7.45;;;;;;;0.29;71.15;97279.52;1760294;79;25855;-82
2021/05/04 03:51:16;;;;;;;10.53;6.20;;;;;;;0.28;71.02;97270.36;1760781;81;27484;-82
2021/05/04 03:53:43;;;;;;;11.53;7.08;;;;;;;0.30;71.08;97266.58;1732344;79;25734;-82
2021/05/04 03:56:11;;;;;;;11.15;6.55;;;;;;;0.39;71.12;97270.63;1732421;81;25777;-82
2021/05/04 03:58:38;;;;;;;13.72;7.05;;;;;;;0.46;71.14;97271.72;1732410;79;25710;-82
2021/05/04 04:01:05;;;;;;;13.10;7.25;;;;;;;0.50;71.02;97267.75;1732494;79;25734;-82
2021/05/04 04:03:32;;;;;;;14.35;6.92;;;;;;;0.59;71.10;97269.52;1734596;79;27611;-82
2021/05/04 04:06:00;;;;;;;11.78;6.90;;;;;;;0.65;71.03;97266.23;1763849;81;26141;-82
2021/05/04 04:08:27;;;;;;;15.75;7.17;;;;;;;0.67;71.15;97264.27;1759486;79;26265;-82
2021/05/04 04:10:54;;;;;;;17.52;7.65;;;;;;;0.68;71.21;97257.47;1762741;81;25831;-81
2021/05/04 04:13:22;;;;;;;12.93;7.00;;;;;;;0.70;71.37;97261.31;1762632;81;25683;-82
2021/05/04 04:15:49;;;;;;;16.62;6.58;;;;;;;0.71;71.36;97259.83;1758655;79;27527;-81
2021/05/04 04:18:16;;;;;;;10.98;7.20;;;;;;;0.77;71.31;97251.72;1762556;81;25850;-82
2021/05/04 04:20:44;;;;;;;16.12;6.20;;;;;;;0.85;71.34;97252.27;1762697;80;25738;-82
2021/05/04 04:23:11;;;;;;;15.68;6.90;;;;;;;0.93;71.24;97245.21;1762790;81;26849;-82
2021/05/04 04:25:38;;;;;;;10.68;6.78;;;;;;;0.97;71.08;97243.89;1762572;79;25798;-82
2021/05/04 04:28:05;;;;;;;18.02;7.03;;;;;;;1.04;71.15;97242.30;1762744;81;27553;-82
2021/05/04 04:30:33;;;;;;;10.65;7.28;;;;;;;1.11;71.10;97242.98;1762763;79;25913;-82
2021/05/04 04:33:00;;;;;;;11.75;6.75;;;;;;;1.20;71.02;97242.07;1761988;79;25811;-84
2021/05/04 04:35:27;;;;;;;17.23;7.08;;;;;;;1.29;71.00;97243.28;1768829;79;26337;-83
2021/05/04 04:37:55;;;;;;;11.80;6.37;;;;;;;1.37;70.93;97249.97;1785918;80;25735;-82
2021/05/04 04:40:22;;;;;;;14.00;5.95;;;;;;;1.44;70.87;97244.87;1781463;78;27524;-82
2021/05/04 04:42:50;;;;;;;14.33;6.10;;;;;;;1.53;70.78;97244.41;1777246;78;26308;-82
2021/05/04 04:45:17;;;;;;;13.75;5.72;;;;;;;1.60;70.71;97240.10;1785820;80;25800;-83
2021/05/04 04:47:45;;;;;;;14.60;6.87;;;;;;;1.67;70.56;97244.64;1785326;78;25760;-83
2021/05/04 04:50:12;;;;;;;16.70;6.67;;;;;;;1.77;70.51;97238.70;1785603;80;25796;-82
2021/05/04 04:52:40;;;;;;;14.58;6.72;;;;;;;1.86;70.53;97234.23;1781853;78;27428;-82
2021/05/04 04:55:08;;;;;;;14.47;6.70;;;;;;;1.95;70.63;97232.41;1784195;78;27124;-83
2021/05/04 04:57:35;;;;;;;14.47;8.23;;;;;;;2.04;70.53;97232.30;1770586;78;25901;-83
2021/05/04 05:00:03;;;;;;;15.48;8.23;;;;;;;2.14;70.41;97234.81;1773982;80;25910;-83
2021/05/04 05:02:31;;;;;;;30.17;13.60;;;;;;;2.23;70.26;97235.66;1765253;80;25769;-83
2021/05/04 05:04:58;;;;;;;37.53;16.05;;;;;;;2.33;70.30;97235.84;1776802;78;27515;-83
2021/05/04 05:07:25;;;;;;;30.95;15.40;;;;;;;2.41;70.40;97233.70;1754827;80;25720;-83
2021/05/04 05:09:53;;;;;;;31.55;13.53;;;;;;;2.48;70.45;97234.20;1754838;78;25797;-83
2021/05/04 05:12:20;;;;;;;23.42;8.88;;;;;;;2.59;70.55;97231.71;1755613;78;26868;-83
2021/05/04 05:14:47;;;;;;;19.15;8.30;;;;;;;2.69;70.42;97222.21;1767538;79;25761;-83
2021/05/04 05:17:17;;;;;;;16.97;8.08;;;;;;;2.80;70.28;97217.88;1764099;78;27436;-83
2021/05/04 05:19:44;;;;;;;19.75;10.50;;;;;;;2.92;70.27;97217.88;1785952;80;26238;-83
2021/05/04 05:22:11;;;;;;;15.32;8.20;;;;;;;3.05;70.45;97215.52;1786093;78;25734;-84
2021/05/04 05:24:39;;;;;;;13.15;7.67;;;;;;;3.18;70.33;97205.17;1763232;78;25792;-83
2021/05/04 05:27:07;;;;;;;11.30;7.28;;;;;;;3.33;70.19;97205.81;1826078;77;26446;-84
2021/05/04 05:29:35;;;;;;;13.25;7.03;;;;;;;3.47;69.93;97206.44;1813931;77;27475;-83
2021/05/04 05:32:04;;;;;;;16.77;6.35;;;;;;;3.58;69.57;97198.89;1815609;77;26157;-83
2021/05/04 05:34:31;;;;;;;12.80;6.97;;;;;;;3.69;69.53;97195.51;1834925;77;25736;-83
2021/05/04 05:36:58;;;;;;;19.30;8.13;;;;;;;3.79;69.43;97194.29;1821906;77;26448;-83
2021/05/04 05:39:26;;;;;;;11.57;7.60;;;;;;;3.90;69.44;97188.55;1826004;77;25800;-83
2021/05/04 05:41:53;;;;;;;11.97;6.58;;;;;;;4.02;69.33;97183.65;1847773;77;27492;-84
2021/05/04 05:44:20;;;;;;;6.47;4.72;;;;;;;4.15;69.05;97183.08;1824023;77;26301;-83
2021/05/04 05:46:50;;;;;;;7.72;4.22;;;;;;;4.32;68.31;97179.30;1855248;77;25769;-83
2021/05/04 05:49:18;;;;;;;8.78;3.95;;;;;;;4.47;68.18;97177.50;1839625;77;25777;-83
2021/05/04 05:51:45;;;;;;;5.95;4.20;;;;;;;4.64;68.01;97178.21;1824390;77;25849;-83
2021/05/04 05:54:13;;;;;;;6.97;4.10;;;;;;;4.79;67.83;97172.91;1824079;77;27469;-84
2021/05/04 05:56:40;;;;;;;8.65;4.87;;;;;;;4.96;67.60;97163.71;1824139;77;25734;-84
2021/05/04 05:59:07;;;;;;;6.22;3.50;;;;;;;5.17;67.07;97161.17;1830778;77;25646;-84
2021/05/04 06:01:35;;;;;;;6.95;3.58;;;;;;;5.43;66.65;97160.73;1840781;77;26480;-85
2021/05/04 06:04:03;;;;;;;4.45;3.00;;;;;;;5.65;66.02;97150.92;1830924;77;25809;-84
2021/05/04 06:06:30;;;;;;;7.03;3.85;;;;;;;5.84;65.04;97152.17;1830869;77;28451;-85
2021/05/04 06:08:58;;;;;;;5.87;3.47;;;;;;;6.00;64.55;97146.12;1824140;77;25710;-84
2021/05/04 06:11:25;;;;;;;4.53;3.20;;;;;;;6.19;64.54;97146.01;1835079;77;25775;-84
2021/05/04 06:13:52;;;;;;;5.87;3.30;;;;;;;6.34;63.84;97140.59;1852359;77;25770;-84
2021/05/04 06:16:20;;;;;;;7.15;2.77;;;;;;;6.43;63.26;97131.40;1858134;77;25700;-84
2021/05/04 06:18:47;;;;;;;5.20;3.40;;;;;;;6.52;62.95;97130.78;1858027;77;27657;-84
2021/05/04 06:21:15;;;;;;;5.97;4.03;;;;;;;6.60;62.59;97121.25;1834101;77;26179;-84
2021/05/04 06:23:42;;;;;;;5.55;4.05;;;;;;;6.70;62.75;97129.79;1857996;77;25774;-84
2021/05/04 06:26:10;;;;;;;8.60;4.60;;;;;;;6.77;62.40;97122.61;1858136;77;26363;-83
2021/05/04 06:28:39;;;;;;;8.10;4.03;;;;;;;6.87;62.47;97116.42;1855362;77;25836;-84
2021/05/04 06:31:07;;;;;;;13.93;6.83;;;;;;;6.94;62.41;97119.97;1857407;77;27548;-84
2021/05/04 06:33:34;;;;;;;10.15;5.33;;;;;;;7.02;62.33;97112.27;1857790;77;26135;-84
2021/05/04 06:36:02;;;;;;;11.40;5.03;;;;;;;7.11;62.71;97105.75;1855205;77;25701;-83
2021/05/04 06:38:29;;;;;;;9.65;3.92;;;;;;;7.24;62.32;97101.27;1838274;77;25747;-84
2021/05/04 06:40:57;;;;;;;7.15;4.33;;;;;;;7.38;61.84;97097.31;1844127;76;25874;-84
2021/05/04 06:43:24;;;;;;;4.22;3.30;;;;;;;7.52;61.83;97089.64;1833620;77;27479;-84
2021/05/04 06:45:52;;;;;;;5.72;3.90;;;;;;;7.63;61.36;97078.84;1805257;77;26129;-84
2021/05/04 06:48:19;;;;;;;7.28;3.85;;;;;;;7.74;61.23;97075.57;1834577;77;25792;-83
2021/05/04 06:50:47;;;;;;;5.78;3.45;;;;;;;7.87;60.74;97076.96;1826166;77;25730;-85
2021/05/04 06:53:14;;;;;;;5.15;3.50;;;;;;;8.01;60.04;97071.11;1845246;77;25826;-83
2021/05/04 06:55:41;;;;;;;6.20;3.08;;;;;;;8.18;59.84;97069.70;1845164;76;26679;-84
2021/05/04 06:58:09;;;;;;;10.00;3.42;;;;;;;8.33;59.74;97057.46;1832818;77;25761;-83
2021/05/04 07:00:36;;;;;;;7.37;3.27;;;;;;;8.46;59.30;97057.44;1828802;77;25934;-83
2021/05/04 07:03:04;;;;;;;6.80;3.37;;;;;;;8.56;59.04;97048.47;1839451;77;25708;-83
2021/05/04 07:05:32;;;;;;;9.23;3.35;;;;;;;8.67;58.68;97043.80;1821301;77;25787;-84
2021/05/04 07:08:00;;;;;;;5.75;3.67;;;;;;;8.75;58.22;97036.85;1848932;77;27478;-84
2021/05/04 07:10:27;;;;;;;8.43;3.10;;;;;;;8.80;57.88;97035.72;1847164;77;26561;-84
2021/05/04 07:12:55;;;;;;;6.22;3.45;;;;;;;8.88;57.42;97031.45;1840225;77;25788;-84
2021/05/04 07:15:23;;;;;;;7.58;3.85;;;;;;;8.95;57.40;97017.45;1846931;77;26532;-84
2021/05/04 07:17:51;;;;;;;8.03;3.65;;;;;;;9.05;57.02;97016.21;1848928;76;25752;-84
2021/05/04 07:20:20;;;;;;;10.20;3.22;;;;;;;9.15;56.63;97003.95;1845113;77;28735;-84
2021/05/04 07:22:54;;;;;;;6.25;3.33;;;;;;;9.29;56.87;97001.53;1846841;76;26070;-85
2021/05/04 07:25:19;;;;;;;4.35;2.92;;;;;;;9.46;56.20;97000.52;1848320;77;25775;-84
2021/05/04 07:27:46;;;;;;;3.25;2.85;;;;;;;9.60;55.52;96985.94;1841160;77;25871;-84
2021/05/04 07:30:16;;;;;;;7.55;3.77;;;;;;;9.80;55.32;96984.99;1804418;77;25677;-82
2021/05/04 07:32:43;;;;;;;6.62;3.75;;;;;;;10.00;55.15;96986.54;1836369;77;27562;-84
2021/05/04 07:35:11;;;;;;;8.90;3.77;;;;;;;10.27;54.51;96987.18;1832158;77;25932;-84
2021/05/04 07:37:41;;;;;;;7.00;3.10;;;;;;;10.63;54.19;96973.48;1843080;77;25669;-85
2021/05/04 07:40:09;;;;;;;5.95;3.80;;;;;;;11.12;53.95;96981.49;1852889;77;25692;-84
2021/05/04 07:42:37;;;;;;;6.42;3.70;;;;;;;11.65;53.75;96970.56;1833752;77;25896;-84
2021/05/04 07:45:08;;;;;;;4.67;3.40;;;;;;;12.07;52.79;96963.35;1850084;77;27494;-85
2021/05/04 07:47:35;;;;;;;4.10;3.50;;;;;;;12.50;52.06;96959.00;1846423;76;25761;-86
2021/05/04 07:50:07;;;;;;;4.67;3.65;;;;;;;12.91;51.61;96956.72;1836594;77;25774;-82
2021/05/04 07:52:34;;;;;;;7.72;3.27;;;;;;;13.28;50.57;96951.30;1844987;76;25807;-84
2021/05/04 07:55:02;;;;;;;5.00;3.35;;;;;;;13.65;50.12;96945.00;1854647;77;25628;-82
2021/05/04 07:57:29;;;;;;;4.40;3.40;;;;;;;13.99;49.46;96944.58;1825614;76;28229;-84
2021/05/04 07:59:59;;;;;;;4.67;2.92;;;;;;;14.17;48.18;96925.05;1821610;77;25726;-83
2021/05/04 08:02:27;;;;;;;4.92;3.27;;;;;;;14.42;47.96;96930.94;1821601;77;25826;-85
2021/05/04 08:04:54;;;;;;;6.60;3.35;;;;;;;14.80;47.57;96925.27;1821417;77;26518;-87
2021/05/04 08:07:22;;;;;;;3.35;3.05;;;;;;;15.06;47.00;96921.84;1821573;77;25830;-85
2021/05/04 08:09:49;;;;;;;6.37;3.70;;;;;;;15.24;45.82;96920.16;1837752;77;27482;-85
2021/05/04 08:12:17;;;;;;;5.08;3.30;;;;;;;15.40;44.58;96917.92;1851959;77;25684;-85
2021/05/04 08:14:45;;;;;;;4.87;3.77;;;;;;;15.51;44.05;96914.78;1843115;76;26289;-86
2021/05/04 08:17:15;;;;;;;6.62;3.40;;;;;;;15.59;41.93;96908.91;1848111;77;25781;-86
2021/05/04 08:19:42;;;;;;;4.53;3.35;;;;;;;15.57;41.06;96903.47;1847071;77;25884;-88
2021/05/04 08:22:10;;;;;;;5.78;3.50;;;;;;;15.71;41.64;96910.12;1839395;77;27635;-86
2021/05/04 08:24:38;;;;;;;5.05;3.62;;;;;;;15.80;41.48;96904.53;1829002;77;26099;-84
2021/05/04 08:27:06;;;;;;;7.40;3.42;;;;;;;15.94;41.37;96892.13;1834471;77;25810;-85
2021/05/04 08:29:35;;;;;;;4.45;3.35;;;;;;;16.20;40.21;96902.17;1831155;76;26368;-86
2021/05/04 08:32:03;;;;;;;5.08;2.98;;;;;;;16.24;37.95;96895.68;1821437;77;25637;-86
2021/05/04 08:34:33;;;;;;;5.67;3.80;;;;;;;16.37;40.16;96901.23;1845123;77;27436;-86
2021/05/04 08:37:02;;;;;;;4.08;3.25;;;;;;;16.63;39.80;96914.00;1832439;76;26367;-87
2021/05/04 08:39:30;;;;;;;3.42;3.12;;;;;;;16.88;39.53;96897.82;1847867;77;25754;-88
2021/05/04 08:41:57;;;;;;;5.95;3.27;;;;;;;17.23;39.47;96895.00;1847353;76;26417;-88
2021/05/04 08:44:25;;;;;;;6.42;3.70;;;;;;;17.59;39.45;96894.59;1835750;77;25310;-86
2021/05/04 08:46:53;;;;;;;4.05;3.25;;;;;;;17.93;39.21;96879.41;1832338;76;27479;-86
2021/05/04 08:49:21;;;;;;;3.27;2.98;;;;;;;18.33;39.22;96877.27;1838175;77;25812;-86
2021/05/04 08:51:51;;;;;;;4.05;3.20;;;;;;;18.63;38.48;96861.95;1847662;77;26221;-86
2021/05/04 08:54:19;;;;;;;4.45;2.95;;;;;;;18.96;38.39;96857.23;1839998;76;25887;-86
2021/05/04 08:56:46;;;;;;;4.58;3.08;;;;;;;19.17;37.62;96858.00;1845118;76;25976;-86
2021/05/04 08:59:15;;;;;;;5.90;3.25;;;;;;;19.23;37.16;96840.45;1847540;77;27477;-86
2021/05/04 09:01:43;;;;;;;6.12;2.50;;;;;;;19.35;36.18;96860.10;1856600;77;25767;-86
2021/05/04 09:04:34;;;;;;;6.42;2.10;;;;;;;19.39;37.13;96846.69;1847183;77;25757;-84
2021/05/04 09:07:24;;;;;;;2.92;2.10;;;;;;;19.12;31.66;96851.72;1840522;77;25794;-86
2021/05/04 09:10:27;;;;;;;2.02;1.85;;;;;;;18.50;33.01;96835.16;1826800;77;25887;-84
2021/05/04 09:12:54;;;;;;;2.40;2.02;;;;;;;18.31;32.26;96832.19;1823001;77;27492;-86
2021/05/04 09:16:03;;;;;;;5.05;2.72;;;;;;;17.96;32.37;96825.63;1838818;76;26059;-87
2021/05/04 09:19:03;;;;;;;4.08;1.92;;;;;;;17.79;32.08;96830.52;1844967;76;26275;-86
2021/05/04 09:21:35;;;;;;;3.85;2.10;;;;;;;17.59;32.95;96818.18;1821464;77;25740;-85
2021/05/04 09:24:41;;;;;;;1.92;1.70;;;;;;;17.70;33.02;96800.77;1846573;76;25940;-86
2021/05/04 09:27:15;;;;;;;2.25;1.92;;;;;;;17.92;33.37;96808.14;1849855;77;28590;-85
2021/05/04 09:29:47;;;;;;;2.05;1.82;;;;;;;18.04;32.60;96816.06;1857132;77;25760;-86
2021/05/04 09:32:27;;;;;;;3.60;2.25;;;;;;;18.26;32.09;96800.21;1844909;77;36370;-86
2021/05/04 09:35:02;;;;;;;2.10;1.87;;;;;;;18.39;32.52;96791.17;1852961;77;26649;-87
2021/05/04 09:37:41;;;;;;;3.80;2.08;;;;;;;18.51;32.04;96794.44;1845905;77;25842;-89
2021/05/04 09:40:28;;;;;;;4.92;2.37;;;;;;;18.63;33.25;96790.34;1838810;77;27564;-85
2021/05/04 09:43:15;;;;;;;2.92;1.55;;;;;;;18.69;32.13;96787.05;1835052;77;25719;-85
2021/05/04 09:45:58;;;;;;;2.10;1.80;;;;;;;18.70;32.30;96773.66;1817143;77;25721;-86
2021/05/04 09:48:37;;;;;;;2.08;1.75;;;;;;;18.77;32.41;96771.44;1831517;77;25700;-86
2021/05/04 09:51:14;;;;;;;2.25;2.00;;;;;;;19.16;33.06;96761.16;1810310;77;25898;-85
2021/05/04 09:53:48;;;;;;;2.22;2.00;;;;;;;19.26;32.05;96769.31;1822471;77;27687;-89
2021/05/04 09:56:33;;;;;;;3.75;1.90;;;;;;;19.20;30.01;96772.61;1841987;77;26079;-86
2021/05/04 09:59:02;;;;;;;3.00;2.00;;;;;;;19.00;30.60;96754.39;1812053;77;25725;-85
2021/05/04 10:01:30;;;;;;;2.17;1.67;;;;;;;19.02;30.90;96753.56;1835779;77;25689;-84
2021/05/04 10:04:00;;;;;;;3.10;1.70;;;;;;;19.13;31.27;96742.56;1842370;77;25737;-86
2021/05/04 10:06:28;;;;;;;3.17;2.08;;;;;;;19.29;30.45;96741.39;1841993;77;28643;-85
2021/05/04 10:08:57;;;;;;;3.50;1.77;;;;;;;19.23;31.21;96730.19;1842225;77;25621;-85
2021/05/04 10:11:26;;;;;;;3.45;1.70;;;;;;;19.54;32.38;96734.41;1819999;77;25380;-85
2021/05/04 10:13:59;;;;;;;2.40;1.75;;;;;;;19.90;30.57;96719.07;1803631;77;25743;-84
2021/05/04 10:16:30;;;;;;;3.58;1.92;;;;;;;19.88;31.56;96722.65;1818194;77;25743;-86
2021/05/04 10:19:03;;;;;;;2.40;1.87;;;;;;;19.75;29.08;96721.38;1842366;77;28370;-87
2021/05/04 10:21:31;;;;;;;2.62;1.85;;;;;;;19.17;29.63;96715.74;1828029;77;26226;-87
2021/05/04 10:24:01;;;;;;;1.50;1.40;;;;;;;18.84;30.58;96709.05;1837246;77;25856;-87
2021/05/04 10:26:31;;;;;;;2.35;1.70;;;;;;;18.83;30.73;96692.41;1848687;77;26480;-87
2021/05/04 10:29:07;;;;;;;2.60;2.10;;;;;;;18.69;30.59;96688.09;1844503;77;25702;-85
2021/05/04 10:31:43;;;;;;;3.90;2.33;;;;;;;18.83;31.80;96691.05;1830104;77;27471;-86
2021/05/04 10:34:34;;;;;;;3.10;2.40;;;;;;;19.22;30.69;96675.20;1802933;77;26085;-87
2021/05/04 10:37:19;;;;;;;2.05;1.92;;;;;;;19.44;30.25;96672.30;1844115;77;25921;-85
2021/05/04 10:39:47;;;;;;;3.72;1.55;;;;;;;19.54;29.89;96663.25;1807358;77;25770;-86
2021/05/04 10:42:35;;;;;;;5.40;1.87;;;;;;;19.84;30.18;96662.14;1830054;77;25716;-83
2021/05/04 10:45:06;;;;;;;2.75;2.00;;;;;;;19.96;29.64;96665.86;1847117;77;27476;-86
2021/05/04 10:47:46;;;;;;;3.20;2.37;;;;;;;20.15;28.50;96662.67;1837719;77;26330;-85
2021/05/04 10:50:23;;;;;;;3.20;2.10;;;;;;;20.23;29.33;96656.55;1814232;77;25764;-88
2021/05/04 10:52:55;;;;;;;1.87;1.55;;;;;;;20.38;29.28;96644.08;1837984;77;26457;-85
2021/05/04 10:55:43;;;;;;;6.08;1.85;;;;;;;20.58;29.19;96639.44;1834124;77;25795;-88
2021/05/04 10:58:16;;;;;;;2.30;1.77;;;;;;;20.80;29.28;96643.81;1832010;77;27515;-87
2021/05/04 11:00:56;;;;;;;2.58;1.85;;;;;;;20.97;28.37;96633.71;1810788;77;25850;-86
2021/05/04 11:03:38;;;;;;;2.50;1.70;;;;;;;20.99;28.15;96636.98;1823954;77;26249;-85
2021/05/04 11:06:15;;;;;;;3.20;1.90;;;;;;;20.91;29.04;96624.72;1834578;77;25701;-85
2021/05/04 11:08:47;;;;;;;1.92;1.82;;;;;;;21.15;28.59;96621.34;1811882;77;25791;-85
2021/05/04 11:11:37;;;;;;;3.33;1.70;;;;;;;21.11;28.12;96635.42;1830895;77;28494;-85
2021/05/04 11:14:23;;;;;;;4.10;1.90;;;;;;;21.08;27.08;96633.27;1780377;78;25898;-88
2021/05/04 11:17:04;;;;;;;1.87;1.77;;;;;;;20.99;27.12;96622.70;1758644;80;25954;-87
2021/05/04 11:19:39;;;;;;;2.27;2.08;;;;;;;20.82;26.23;96641.04;1822187;77;25927;-89
2021/05/04 11:22:23;;;;;;;2.12;1.50;;;;;;;20.90;27.75;96637.36;1823518;77;25841;-88
2021/05/04 11:24:57;;;;;;;2.20;2.00;;;;;;;21.15;28.45;96616.41;1813366;77;27557;-88
2021/05/04 11:27:33;;;;;;;2.62;1.60;;;;;;;21.39;28.46;96599.31;1833427;77;26599;-88
2021/05/04 11:30:06;;;;;;;2.15;1.60;;;;;;;21.64;27.17;96608.23;1799357;77;25786;-91
2021/05/04 11:32:44;;;;;;;4.37;1.75;;;;;;;21.69;27.56;96602.67;1814348;77;25857;-88
2021/05/04 11:35:14;;;;;;;3.37;1.70;;;;;;;21.69;27.56;96602.67;1826032;77;25694;-87
2021/05/04 11:37:47;;;;;;;2.52;1.80;;;;;;;21.92;28.30;96590.14;1844254;77;27477;-90
2021/05/04 11:40:24;;;;;;;3.58;1.80;;;;;;;22.13;26.93;96580.16;1837437;77;26795;-89
2021/05/04 11:42:59;;;;;;;1.80;1.70;;;;;;;21.88;26.54;96571.81;1843009;77;25762;-91